Time;durP1;ratioP1;P1;durP2;ratioP2;P2;SDS_P1;SDS_P2;PMS_P1;PMS_P2;Temp;Humidity;BMP_temperature;BMP_pressure;BME280_temperature;BME280_humidity;BME280_pressure;Samples;Min_cycle;Max_cycle;Signal;HPM_P1;HPM_P2
2021/11/23 00:02:31;;;;;;;9.98;5.20;;;;;;;6.24;65.87;100244.00;4919701;29;20144;-67
2021/11/23 00:05:04;;;;;;;10.25;4.75;;;;;;;6.15;65.60;100237.00;4919654;29;20044;-67
2021/11/23 00:07:38;;;;;;;8.63;4.22;;;;;;;6.10;66.20;100241.09;4919917;29;20106;-67
2021/11/23 00:10:08;;;;;;;11.75;4.75;;;;;;;5.94;65.89;100238.97;4919479;29;20052;-67
2021/11/23 00:12:44;;;;;;;9.77;4.00;;;;;;;5.80;66.15;100245.31;4919770;29;20048;-67
2021/11/23 00:15:35;;;;;;;10.02;4.18;;;;;;;5.65;66.24;100252.50;4919410;29;20079;-66
2021/11/23 00:18:11;;;;;;;10.98;5.30;;;;;;;5.69;66.76;100251.75;4919971;29;20491;-67
2021/11/23 00:20:42;;;;;;;8.48;4.07;;;;;;;5.69;66.85;100251.75;4919547;29;20396;-67
2021/11/23 00:23:16;;;;;;;9.32;3.78;;;;;;;5.60;67.01;100256.56;4919348;29;20135;-67
2021/11/23 00:25:48;;;;;;;10.98;4.25;;;;;;;5.52;67.49;100252.97;4919296;29;20168;-67
2021/11/23 00:28:17;;;;;;;11.80;4.65;;;;;;;5.56;67.60;100259.84;4919655;29;20558;-67
2021/11/23 00:30:48;;;;;;;12.90;5.50;;;;;;;5.50;67.46;100264.72;4919396;29;20127;-66
2021/11/23 00:33:22;;;;;;;12.68;4.82;;;;;;;5.37;67.37;100274.47;4919427;29;20060;-67
2021/11/23 00:35:54;;;;;;;12.48;5.25;;;;;;;5.26;67.68;100285.09;4919149;29;20104;-68
2021/11/23 00:38:26;;;;;;;8.55;4.32;;;;;;;5.26;68.10;100283.44;4919654;29;20096;-67
2021/11/23 00:40:56;;;;;;;10.25;4.45;;;;;;;5.19;68.16;100284.06;4918930;29;20051;-66
2021/11/23 00:43:25;;;;;;;13.55;4.72;;;;;;;5.11;68.09;100289.72;4919264;29;20056;-66
2021/11/23 00:45:55;;;;;;;11.50;4.43;;;;;;;5.15;68.34;100292.38;4918844;29;20430;-66
2021/11/23 00:48:29;;;;;;;10.35;4.85;;;;;;;5.26;68.45;100291.03;4919107;29;20390;-66
2021/11/23 00:50:59;;;;;;;10.98;4.55;;;;;;;5.29;67.87;100296.19;4918742;29;20131;-66
2021/11/23 00:53:30;;;;;;;;;;;;;;;5.10;67.91;100298.97;4919165;29;20135;-67
2021/11/23 00:56:01;;;;;;;11.02;4.65;;;;;;;5.08;67.81;100294.66;4918795;29;20365;-66
2021/11/23 00:58:34;;;;;;;12.52;5.07;;;;;;;5.13;67.88;100299.06;4918670;29;20095;-67
2021/11/23 01:01:04;;;;;;;11.20;4.55;;;;;;;5.07;68.34;100287.88;4918825;29;20162;-66
2021/11/23 01:03:38;;;;;;;11.60;5.60;;;;;;;5.11;68.06;100298.13;4918581;29;20056;-67
2021/11/23 01:06:11;;;;;;;13.98;5.70;;;;;;;5.13;68.33;100303.25;4918553;29;20044;-67
2021/11/23 01:08:41;;;;;;;11.80;5.10;;;;;;;5.08;68.48;100292.16;4918537;29;20545;-67
2021/11/23 01:11:12;;;;;;;11.77;4.93;;;;;;;5.21;68.47;100295.09;4918591;29;20427;-67
2021/11/23 01:13:42;;;;;;;11.38;5.38;;;;;;;5.18;68.53;100294.97;4918572;29;20096;-67
2021/11/23 01:16:15;;;;;;;10.52;4.57;;;;;;;5.30;68.48;100295.34;4918923;29;20060;-67
2021/11/23 01:18:47;;;;;;;12.07;5.57;;;;;;;5.29;68.04;100295.31;4918325;29;20055;-66
2021/11/23 01:21:16;;;;;;;10.27;5.10;;;;;;;5.31;68.21;100299.63;4918605;29;20160;-66
2021/11/23 01:23:46;;;;;;;12.35;5.15;;;;;;;5.27;68.46;100297.81;4918143;29;20060;-67
2021/11/23 01:26:18;;;;;;;12.10;5.47;;;;;;;5.38;68.42;100301.50;4918349;29;20498;-67
2021/11/23 01:28:48;;;;;;;10.98;5.40;;;;;;;5.42;68.22;100313.44;4918148;29;20056;-67
2021/11/23 01:31:20;;;;;;;15.20;6.25;;;;;;;5.40;68.18;100304.94;4917958;29;20108;-67
2021/11/23 01:33:51;;;;;;;11.82;5.93;;;;;;;5.32;68.14;100296.28;4918233;29;20055;-67
2021/11/23 01:36:24;;;;;;;14.25;6.25;;;;;;;5.27;67.95;100302.00;4918083;29;20060;-67
2021/11/23 01:38:54;;;;;;;13.75;5.55;;;;;;;5.23;68.08;100308.63;4917766;29;20056;-66
2021/11/23 01:41:26;;;;;;;13.02;5.88;;;;;;;5.22;68.51;100308.59;4918170;29;20084;-67
2021/11/23 01:43:56;;;;;;;14.38;6.13;;;;;;;5.23;68.32;100311.16;4917871;29;20055;-67
2021/11/23 01:46:25;;;;;;;11.15;5.63;;;;;;;5.24;68.43;100310.38;4917795;29;20059;-67
2021/11/23 01:48:59;;;;;;;13.15;6.80;;;;;;;5.28;68.44;100324.81;4918098;29;20096;-67
2021/11/23 01:51:31;;;;;;;12.70;6.72;;;;;;;5.30;68.09;100322.34;4917825;29;20044;-66
2021/11/23 01:54:01;;;;;;;15.40;6.50;;;;;;;5.31;68.35;100324.91;4917653;29;20142;-67
2021/11/23 01:56:34;;;;;;;16.30;7.07;;;;;;;5.35;68.09;100331.78;4918045;29;20056;-67
2021/11/23 01:59:04;;;;;;;12.02;6.07;;;;;;;5.37;67.89;100330.16;4917652;29;20090;-67
2021/11/23 02:01:37;;;;;;;15.40;6.47;;;;;;;5.38;68.20;100331.88;4917650;29;20502;-67
2021/11/23 02:04:08;;;;;;;15.27;7.35;;;;;;;5.40;68.15;100334.44;4917438;29;20566;-67
2021/11/23 02:06:41;;;;;;;13.27;6.70;;;;;;;5.36;68.25;100333.50;4918129;29;20156;-67
2021/11/23 02:09:11;;;;;;;12.40;6.35;;;;;;;5.40;67.97;100329.38;4917511;29;20075;-67
2021/11/23 02:11:43;;;;;;;;;;;;;;;5.40;67.94;100330.25;4917811;29;20107;-67
2021/11/23 02:14:16;;;;;;;12.55;6.22;;;;;;;5.32;67.99;100314.00;4917708;29;20108;-67
2021/11/23 02:16:48;;;;;;;12.98;6.18;;;;;;;5.34;68.21;100334.28;4917422;29;20103;-67
2021/11/23 02:19:22;;;;;;;14.38;7.38;;;;;;;5.28;67.99;100324.81;4917729;29;20122;-67
2021/11/23 02:21:56;;;;;;;12.43;6.97;;;;;;;5.26;67.89;100316.31;4917427;29;20052;-67
2021/11/23 02:24:26;;;;;;;14.48;6.47;;;;;;;5.19;67.66;100319.47;4917346;29;20040;-67
2021/11/23 02:27:01;;;;;;;12.32;6.28;;;;;;;5.23;67.88;100336.47;4917321;29;20067;-67
2021/11/23 02:29:30;;;;;;;14.13;6.93;;;;;;;5.23;67.81;100331.41;4917342;29;20079;-67
2021/11/23 02:32:03;;;;;;;11.23;5.55;;;;;;;5.20;67.45;100336.41;4917558;29;20087;-67
2021/11/23 02:34:32;;;;;;;13.45;6.70;;;;;;;5.19;67.20;100338.84;4917151;29;20124;-67
2021/11/23 02:37:07;;;;;;;13.50;6.80;;;;;;;5.20;67.99;100344.00;4917254;29;20048;-67
2021/11/23 02:39:39;;;;;;;12.98;6.10;;;;;;;5.17;67.48;100338.81;4917256;29;20062;-67
2021/11/23 02:42:16;;;;;;;12.50;6.40;;;;;;;5.15;67.04;100340.44;4917170;29;20056;-67
2021/11/23 02:44:48;;;;;;;14.23;6.95;;;;;;;5.12;67.52;100347.06;4917463;29;20446;-67
2021/11/23 02:47:20;;;;;;;11.15;5.75;;;;;;;5.12;67.17;100347.06;4917166;29;20056;-67
2021/11/23 02:49:49;;;;;;;12.48;5.90;;;;;;;5.11;66.96;100346.22;4917446;29;20056;-66
2021/11/23 02:52:20;;;;;;;14.15;6.35;;;;;;;5.12;66.72;100353.00;4919372;29;20110;-66
2021/11/23 02:54:56;;;;;;;12.43;5.97;;;;;;;5.09;66.55;100357.09;4920764;29;20082;-67
2021/11/23 02:57:29;;;;;;;11.40;6.25;;;;;;;5.06;66.08;100357.00;4920874;29;20155;-67
2021/11/23 02:59:59;;;;;;;11.95;6.40;;;;;;;5.09;66.53;100360.47;4920962;29;20414;-67
2021/11/23 03:02:33;;;;;;;9.85;5.60;;;;;;;5.09;65.57;100373.13;4920927;29;20052;-67
2021/11/23 03:05:08;;;;;;;12.50;6.35;;;;;;;5.15;65.55;100373.34;4903962;29;20538;-67
2021/11/23 03:07:41;;;;;;;11.20;6.55;;;;;;;5.17;65.33;100366.66;4920676;29;20087;-67
2021/11/23 03:10:12;;;;;;;12.20;5.70;;;;;;;5.12;65.36;100365.66;4921401;29;20120;-66
2021/11/23 03:12:47;;;;;;;12.82;6.13;;;;;;;5.04;65.21;100362.00;4920621;29;20048;-67
2021/11/23 03:15:16;;;;;;;12.02;6.30;;;;;;;5.07;64.88;100369.69;4920420;29;20116;-68
2021/11/23 03:17:49;;;;;;;14.88;6.03;;;;;;;5.03;65.32;100357.78;4920446;29;20059;-67
2021/11/23 03:20:23;;;;;;;12.13;5.82;;;;;;;4.99;65.07;100366.06;4920784;29;20052;-67
2021/11/23 03:22:58;;;;;;;12.68;5.78;;;;;;;4.84;65.06;100365.56;4920425;29;20060;-67
2021/11/23 03:25:28;;;;;;;11.63;6.25;;;;;;;4.80;65.44;100363.72;4920565;29;20056;-67
2021/11/23 03:28:00;;;;;;;11.05;5.72;;;;;;;4.89;65.41;100363.19;4920300;29;20052;-67
2021/11/23 03:30:32;;;;;;;9.48;5.03;;;;;;;4.90;65.33;100365.75;4920459;29;20064;-67
2021/11/23 03:33:08;;;;;;;9.48;4.88;;;;;;;4.89;65.22;100369.13;4920263;29;20064;-67
2021/11/23 03:35:39;;;;;;;10.85;5.72;;;;;;;4.74;65.01;100368.59;4920420;29;20475;-66
2021/11/23 03:38:14;;;;;;;11.90;5.70;;;;;;;4.65;65.08;100373.34;4920117;29;20056;-67
2021/11/23 03:40:47;;;;;;;8.20;4.50;;;;;;;4.63;65.88;100369.91;4920122;29;20509;-67
2021/11/23 03:43:19;;;;;;;9.05;4.60;;;;;;;4.69;65.31;100370.09;4920054;29;20052;-67
2021/11/23 03:45:52;;;;;;;9.20;4.50;;;;;;;4.65;65.63;100370.81;4919966;29;20063;-67
2021/11/23 03:48:25;;;;;;;10.40;4.93;;;;;;;4.58;65.54;100377.31;4919934;29;20068;-67
2021/11/23 03:50:57;;;;;;;12.10;4.97;;;;;;;4.58;65.31;100377.31;4919902;29;20056;-67
2021/11/23 03:53:31;;;;;;;7.68;3.92;;;;;;;4.55;65.38;100382.28;4920499;29;20067;-67
2021/11/23 03:56:03;;;;;;;9.50;3.80;;;;;;;4.53;65.32;100378.84;4920017;29;20570;-67
2021/11/23 03:58:36;;;;;;;7.70;3.67;;;;;;;4.53;65.64;100383.03;4916093;29;20064;-67
2021/11/23 04:01:05;;;;;;;9.85;4.97;;;;;;;4.50;65.42;100393.03;4900916;29;20057;-67
2021/11/23 04:03:38;;;;;;;7.72;4.35;;;;;;;4.47;65.25;100387.88;4900380;29;20054;-67
2021/11/23 04:06:08;;;;;;;7.82;4.47;;;;;;;4.44;65.02;100388.63;4900739;29;20044;-67
2021/11/23 04:08:42;;;;;;;8.88;5.07;;;;;;;4.45;65.02;100395.41;4900713;29;20057;-67
2021/11/23 04:11:11;;;;;;;6.88;3.83;;;;;;;4.50;64.74;100395.56;4901207;29;20072;-67
2021/11/23 04:13:44;;;;;;;8.07;4.20;;;;;;;4.49;64.29;100391.31;4901194;29;20376;-68
2021/11/23 04:16:14;;;;;;;12.52;6.00;;;;;;;4.48;64.27;100389.59;4900904;29;20112;-67
2021/11/23 04:18:44;;;;;;;9.55;4.60;;;;;;;4.42;64.28;100389.38;4900567;29;20049;-66
2021/11/23 04:21:16;;;;;;;9.10;4.32;;;;;;;4.40;64.58;100385.94;4900509;29;20140;-67
2021/11/23 04:23:51;;;;;;;8.38;4.13;;;;;;;4.41;64.06;100396.13;4901121;29;20065;-67
2021/11/23 04:26:20;;;;;;;8.88;4.13;;;;;;;4.39;64.08;100404.44;4900933;29;20442;-67
2021/11/23 04:28:52;;;;;;;7.25;3.85;;;;;;;4.42;64.45;100400.34;4900364;29;20136;-68
2021/11/23 04:31:25;;;;;;;7.97;4.53;;;;;;;4.35;64.25;100398.41;4900614;29;20068;-67
2021/11/23 04:33:57;;;;;;;8.80;4.03;;;;;;;4.01;63.78;100343.31;4900623;29;20462;-66
2021/11/23 04:36:27;;;;;;;7.65;4.07;;;;;;;4.36;63.82;100390.03;4900210;29;20071;-67
2021/11/23 04:39:01;;;;;;;8.82;4.30;;;;;;;4.35;63.64;100403.47;4900341;29;20143;-67
2021/11/23 04:41:33;;;;;;;8.23;4.00;;;;;;;4.37;63.61;100411.09;4900454;29;20053;-67
2021/11/23 04:44:04;;;;;;;6.70;4.20;;;;;;;4.42;63.40;100407.06;4900068;29;20052;-67
2021/11/23 04:46:36;;;;;;;6.15;3.63;;;;;;;4.44;63.23;100418.13;4900294;29;20139;-67
2021/11/23 04:49:07;;;;;;;7.80;4.07;;;;;;;4.41;63.17;100413.81;4900019;29;20143;-67
2021/11/23 04:51:40;;;;;;;8.73;3.90;;;;;;;4.45;63.21;100414.75;4899823;29;20223;-67
2021/11/23 04:54:11;;;;;;;8.77;4.53;;;;;;;4.38;63.21;100418.75;4899885;29;20056;-67
2021/11/23 04:56:43;;;;;;;8.02;4.15;;;;;;;4.37;63.36;100421.19;4899874;29;20089;-67
2021/11/23 04:59:12;;;;;;;7.63;3.80;;;;;;;4.27;62.87;100434.34;4899407;29;20052;-67
2021/11/23 05:01:45;;;;;;;8.35;4.40;;;;;;;4.27;63.29;100434.34;4899784;29;20056;-67
2021/11/23 05:04:15;;;;;;;8.88;4.30;;;;;;;4.27;63.52;100445.28;4900070;29;20123;-66
2021/11/23 05:06:47;;;;;;;11.65;4.60;;;;;;;4.29;62.99;100452.94;4899699;29;20143;-67
2021/11/23 05:09:18;;;;;;;7.68;4.07;;;;;;;4.27;62.80;100446.97;4899489;29;20061;-67
2021/11/23 05:11:50;;;;;;;7.82;4.35;;;;;;;4.32;63.30;100448.00;4899563;29;20495;-67
2021/11/23 05:14:19;;;;;;;8.32;4.07;;;;;;;4.25;63.41;100456.16;4898738;29;20060;-67
2021/11/23 05:16:52;;;;;;;7.53;4.07;;;;;;;4.28;62.79;100463.81;4899737;29;20407;-67
2021/11/23 05:19:21;;;;;;;6.88;3.70;;;;;;;4.16;63.04;100460.84;4899443;29;20052;-67
2021/11/23 05:21:53;;;;;;;7.22;4.10;;;;;;;4.20;62.78;100473.66;4899672;29;20057;-67
2021/11/23 05:24:27;;;;;;;9.88;4.15;;;;;;;4.22;63.03;100478.78;4899658;29;20056;-67
2021/11/23 05:26:59;;;;;;;6.70;4.38;;;;;;;4.22;62.96;100472.06;4899333;29;20168;-68
2021/11/23 05:29:29;;;;;;;7.35;3.67;;;;;;;4.18;63.21;100475.25;4899200;29;20049;-68
2021/11/23 05:32:01;;;;;;;8.13;4.07;;;;;;;4.10;63.06;100490.94;4899386;29;20048;-67
2021/11/23 05:34:31;;;;;;;8.13;4.43;;;;;;;4.06;63.32;100480.72;4899171;29;20105;-67
2021/11/23 05:37:00;;;;;;;9.73;4.38;;;;;;;4.15;63.70;100484.41;4899183;29;20059;-67
2021/11/23 05:39:34;;;;;;;9.52;4.07;;;;;;;4.11;63.94;100482.53;4899362;29;20064;-68
2021/11/23 05:42:07;;;;;;;8.73;3.83;;;;;;;4.08;63.91;100474.06;4899413;29;20432;-67
2021/11/23 05:44:37;;;;;;;11.45;4.47;;;;;;;3.95;63.90;100471.88;4899067;29;20053;-67
2021/11/23 05:47:09;;;;;;;8.10;3.90;;;;;;;3.94;63.70;100474.31;4898955;29;20052;-67
2021/11/23 05:49:38;;;;;;;11.20;5.03;;;;;;;3.92;63.95;100475.94;4899086;29;20063;-67
2021/11/23 05:52:11;;;;;;;8.70;4.00;;;;;;;3.97;63.43;100479.50;4898756;29;20090;-67
2021/11/23 05:54:41;;;;;;;7.20;3.90;;;;;;;3.96;63.59;100483.69;4898845;29;20495;-67
2021/11/23 05:57:14;;;;;;;8.48;4.95;;;;;;;3.91;63.39;100481.81;4898819;29;20061;-67
2021/11/23 05:59:44;;;;;;;10.10;4.95;;;;;;;3.93;63.70;100488.66;4898641;29;20080;-67
2021/11/23 06:02:16;;;;;;;8.73;4.40;;;;;;;3.86;63.40;100481.59;4898750;29;20052;-68
2021/11/23 06:04:46;;;;;;;9.70;5.00;;;;;;;3.78;64.01;100485.50;4898763;29;20056;-66
2021/11/23 06:07:19;;;;;;;10.02;4.43;;;;;;;3.80;64.12;100480.50;4898659;29;20041;-67
2021/11/23 06:09:49;;;;;;;9.40;4.72;;;;;;;3.72;64.42;100482.75;4898631;29;20061;-68
2021/11/23 06:12:25;;;;;;;7.95;3.90;;;;;;;3.74;64.45;100486.19;4899078;29;20403;-67
2021/11/23 06:14:59;;;;;;;6.85;3.50;;;;;;;3.75;64.37;100482.88;4898613;29;20044;-68
2021/11/23 06:17:29;;;;;;;9.63;4.63;;;;;;;3.71;64.43;100497.84;4898434;29;20104;-67
2021/11/23 06:20:04;;;;;;;;;;;;;;;3.66;64.08;100497.66;4899092;29;20057;-67
2021/11/23 06:22:37;;;;;;;7.72;3.95;;;;;;;3.69;64.81;100500.31;4899000;29;20281;-68
2021/11/23 06:25:09;;;;;;;7.70;4.03;;;;;;;3.65;64.29;100497.56;4898290;29;20052;-68
2021/11/23 06:27:42;;;;;;;9.10;4.15;;;;;;;3.71;64.70;100492.78;4898595;29;20408;-67
2021/11/23 06:30:14;;;;;;;6.40;3.72;;;;;;;3.88;64.03;100501.88;4898423;29;20080;-67
2021/11/23 06:32:48;;;;;;;6.43;3.88;;;;;;;4.16;63.54;100506.31;4898506;29;20063;-68
2021/11/23 06:35:18;;;;;;;7.18;3.85;;;;;;;4.43;63.39;100517.47;4898361;29;20132;-67
2021/11/23 06:37:47;;;;;;;8.05;4.20;;;;;;;4.72;63.23;100521.91;4898380;29;20077;-67
2021/11/23 06:40:18;;;;;;;9.10;4.50;;;;;;;4.91;62.13;100520.91;4898470;29;20456;-68
2021/11/23 06:42:50;;;;;;;7.97;4.63;;;;;;;5.07;61.66;100529.06;4898630;29;20048;-67
2021/11/23 06:45:22;;;;;;;8.68;5.15;;;;;;;4.99;61.51;100533.00;4898537;29;20060;-67
2021/11/23 06:47:52;;;;;;;6.32;3.70;;;;;;;5.03;61.41;100544.97;4898211;29;20052;-67
2021/11/23 06:50:24;;;;;;;9.18;3.80;;;;;;;5.03;61.43;100547.50;4898110;29;20049;-67
2021/11/23 06:52:56;;;;;;;6.93;3.25;;;;;;;5.10;61.24;100554.47;4898423;29;20060;-67
2021/11/23 06:55:27;;;;;;;6.53;3.10;;;;;;;5.18;60.56;100550.53;4898210;29;20566;-67
2021/11/23 06:57:57;;;;;;;6.13;3.20;;;;;;;5.25;60.54;100557.56;4898207;29;20080;-68
2021/11/23 07:00:30;;;;;;;6.22;3.80;;;;;;;5.29;59.98;100556.84;4898210;29;20117;-67
2021/11/23 07:03:00;;;;;;;10.35;3.92;;;;;;;5.39;60.35;100566.47;4898096;29;20136;-67
2021/11/23 07:05:30;;;;;;;6.32;3.40;;;;;;;5.49;59.97;100577.78;4898068;29;20057;-67
2021/11/23 07:08:22;;;;;;;5.80;3.60;;;;;;;5.59;59.77;100584.00;4898063;29;20077;-68
2021/11/23 07:10:56;;;;;;;6.32;3.13;;;;;;;5.65;59.75;100579.13;4898350;29;20076;-68
2021/11/23 07:13:28;;;;;;;6.03;3.63;;;;;;;5.72;59.57;100587.00;4898001;29;20495;-67
2021/11/23 07:16:00;;;;;;;7.05;3.60;;;;;;;5.69;59.33;100591.06;4898266;29;20052;-67
2021/11/23 07:18:30;;;;;;;8.75;3.05;;;;;;;5.73;59.08;100597.97;4897981;29;20060;-67
2021/11/23 07:21:02;;;;;;;6.57;3.55;;;;;;;5.85;59.12;100593.34;4898017;29;20059;-68
2021/11/23 07:23:59;;;;;;;7.20;3.85;;;;;;;5.93;59.04;100597.84;4897847;29;20101;-67
2021/11/23 07:26:30;;;;;;;5.88;2.90;;;;;;;5.98;58.81;100590.38;4897959;29;20076;-67
2021/11/23 07:29:06;;;;;;;5.80;3.42;;;;;;;6.01;58.54;100598.09;4897841;29;20147;-67
2021/11/23 07:31:37;;;;;;;4.65;2.55;;;;;;;6.16;58.47;100591.00;4897898;29;20101;-67
2021/11/23 07:34:09;;;;;;;5.03;2.78;;;;;;;6.26;58.45;100594.66;4897801;29;20539;-67
2021/11/23 07:36:39;;;;;;;4.95;2.40;;;;;;;6.38;58.01;100608.56;4897875;29;20049;-67
2021/11/23 07:39:12;;;;;;;5.35;2.60;;;;;;;6.46;57.89;100604.59;4900886;29;20091;-67
2021/11/23 07:41:46;;;;;;;4.68;2.50;;;;;;;6.49;57.31;100607.25;4901055;29;20070;-67
2021/11/23 07:44:19;;;;;;;5.72;2.30;;;;;;;6.46;56.97;100602.06;4884335;29;20089;-66
2021/11/23 07:46:51;;;;;;;4.45;2.35;;;;;;;6.48;56.18;100604.63;4900984;29;20049;-67
2021/11/23 07:49:22;;;;;;;4.25;2.13;;;;;;;6.48;55.72;100607.16;4901218;29;20431;-67
2021/11/23 07:51:54;;;;;;;4.78;2.40;;;;;;;6.62;55.57;100606.78;4901469;29;20410;-67
2021/11/23 07:54:23;;;;;;;4.75;2.30;;;;;;;6.86;55.98;100608.31;4900676;29;20048;-67
2021/11/23 07:56:54;;;;;;;3.58;2.00;;;;;;;6.80;55.30;100603.06;4900929;29;20052;-66
2021/11/23 07:59:23;;;;;;;3.10;1.88;;;;;;;6.84;55.32;100615.03;4900769;29;20061;-66
2021/11/23 08:01:53;;;;;;;3.95;1.80;;;;;;;6.75;55.23;100616.47;4900612;29;20112;-66
2021/11/23 08:04:22;;;;;;;5.00;1.63;;;;;;;6.58;54.44;100612.56;4900993;29;20120;-67
2021/11/23 08:06:51;;;;;;;3.20;1.50;;;;;;;6.52;54.75;100617.47;4900482;29;20045;-67
2021/11/23 08:09:21;;;;;;;3.35;1.98;;;;;;;6.62;54.84;100609.31;4900801;29;20096;-67
2021/11/23 08:11:50;;;;;;;;;;;;;;;6.88;55.26;100619.38;4900756;29;20108;-67
2021/11/23 08:14:24;;;;;;;2.80;1.40;;;;;;;6.85;54.61;100616.75;4900349;29;19928;-67
2021/11/23 08:16:54;;;;;;;3.78;1.98;;;;;;;6.64;53.91;100628.00;4900462;29;20496;-67
2021/11/23 08:19:24;;;;;;;4.07;2.00;;;;;;;6.65;53.98;100624.63;4900324;29;20080;-66
2021/11/23 08:21:53;;;;;;;3.85;1.80;;;;;;;6.50;54.41;100623.31;4900659;29;20040;-67
2021/11/23 08:24:23;;;;;;;5.07;1.60;;;;;;;6.60;54.37;100620.22;4900285;29;20410;-67
2021/11/23 08:26:56;;;;;;;3.28;1.83;;;;;;;6.68;53.77;100617.13;4900345;29;20060;-68
2021/11/23 08:29:27;;;;;;;3.83;2.00;;;;;;;6.73;54.12;100618.13;4900360;29;20044;-67
2021/11/23 08:31:58;;;;;;;3.78;1.98;;;;;;;6.80;53.71;100609.00;4900325;29;20060;-67
2021/11/23 08:34:29;;;;;;;4.43;1.92;;;;;;;6.76;53.05;100630.03;4900057;29;20045;-67
2021/11/23 08:37:00;;;;;;;4.03;1.73;;;;;;;6.75;52.47;100626.63;4900338;29;20056;-68
2021/11/23 08:39:29;;;;;;;3.85;1.70;;;;;;;6.76;52.98;100627.50;4900116;29;20072;-67
2021/11/23 08:41:59;;;;;;;;;;;;;;;6.87;52.67;100625.25;4900353;29;20143;-68
2021/11/23 08:44:30;;;;;;;5.38;1.70;;;;;;;7.11;53.03;100631.03;4900017;29;19969;-67
2021/11/23 08:46:59;;;;;;;3.80;1.80;;;;;;;6.97;52.27;100632.31;4900369;29;20063;-67
2021/11/23 08:49:28;;;;;;;4.18;1.90;;;;;;;6.85;52.07;100637.91;4900490;29;20044;-67
2021/11/23 08:51:58;;;;;;;2.83;1.60;;;;;;;6.81;51.65;100640.31;4900172;29;20060;-67
2021/11/23 08:54:27;;;;;;;2.60;1.58;;;;;;;6.77;51.72;100628.38;4899972;29;20048;-66
2021/11/23 08:57:00;;;;;;;4.32;1.85;;;;;;;6.80;51.64;100633.50;4900115;29;20132;-66
2021/11/23 08:59:33;;;;;;;3.53;1.73;;;;;;;6.93;51.57;100635.59;4899606;29;20076;-66
2021/11/23 09:02:03;;;;;;;3.45;1.80;;;;;;;7.02;51.61;100630.78;4899614;29;20112;-66
2021/11/23 09:04:34;;;;;;;5.40;1.75;;;;;;;6.92;51.09;100634.72;4899722;29;20057;-66
2021/11/23 09:07:07;;;;;;;4.38;1.52;;;;;;;6.84;50.93;100625.19;4899527;29;20055;-67
2021/11/23 09:09:38;;;;;;;3.40;1.80;;;;;;;7.02;50.83;100631.66;4899446;29;20155;-67
2021/11/23 09:12:13;;;;;;;4.47;1.80;;;;;;;7.16;50.78;100639.63;4882739;29;20060;-66
2021/11/23 09:14:44;;;;;;;3.75;1.83;;;;;;;7.21;50.22;100633.03;4899607;29;20057;-67
2021/11/23 09:17:17;;;;;;;2.83;1.25;;;;;;;7.13;50.26;100629.41;4899490;29;20139;-67
2021/11/23 09:19:46;;;;;;;5.32;2.22;;;;;;;7.42;50.17;100634.47;4899557;29;20049;-67
2021/11/23 09:22:16;;;;;;;6.10;1.67;;;;;;;7.56;49.55;100627.22;4899287;29;20059;-67
2021/11/23 09:24:46;;;;;;;2.92;1.85;;;;;;;7.72;50.26;100624.28;4899309;29;20167;-66
2021/11/23 09:27:18;;;;;;;3.30;1.85;;;;;;;7.69;49.26;100629.25;4899252;29;20092;-67
2021/11/23 09:29:48;;;;;;;3.10;1.65;;;;;;;7.87;49.51;100622.09;4899211;29;20495;-68
2021/11/23 09:32:22;;;;;;;4.22;2.03;;;;;;;7.90;48.37;100616.22;4899165;29;20076;-66
2021/11/23 09:34:55;;;;;;;3.85;1.90;;;;;;;7.93;48.89;100619.72;4899062;29;20143;-67
2021/11/23 09:37:26;;;;;;;4.28;1.70;;;;;;;7.89;48.39;100607.75;4899278;29;20407;-67
2021/11/23 09:39:55;;;;;;;4.70;1.88;;;;;;;8.00;48.41;100621.59;4899010;29;20106;-67
2021/11/23 09:42:28;;;;;;;3.85;1.73;;;;;;;8.02;47.88;100625.03;4899266;29;20157;-67
2021/11/23 09:45:03;;;;;;;5.45;1.73;;;;;;;8.04;48.39;100618.28;4898933;29;20526;-67
2021/11/23 09:47:33;;;;;;;3.85;2.20;;;;;;;7.94;47.69;100610.41;4899019;29;20049;-67
2021/11/23 09:50:03;;;;;;;;;;;;;;;7.76;48.06;100605.72;4899297;29;20060;-67
2021/11/23 09:52:33;;;;;;;;;;;;;;;7.61;47.47;100612.09;4899507;29;20026;-67
2021/11/23 09:55:02;;;;;;;;;;;;;;;7.71;47.72;100607.28;4899199;29;19964;-67
2021/11/23 09:57:32;;;;;;;3.28;1.67;;;;;;;7.60;48.19;100606.16;4898661;29;19923;-67
2021/11/23 10:00:04;;;;;;;4.03;1.98;;;;;;;7.78;48.04;100599.00;4898331;29;20136;-67
2021/11/23 10:02:37;;;;;;;3.47;1.70;;;;;;;7.81;48.03;100594.00;4898180;29;20052;-67
2021/11/23 10:05:10;;;;;;;4.20;2.03;;;;;;;7.72;48.07;100588.69;4899505;29;20583;-66
2021/11/23 10:07:41;;;;;;;4.25;2.00;;;;;;;7.88;47.89;100590.78;4898901;29;20108;-68
2021/11/23 10:10:13;;;;;;;5.20;1.67;;;;;;;8.06;47.82;100591.22;4898896;29;20056;-66
2021/11/23 10:12:52;;;;;;;3.58;1.80;;;;;;;8.45;47.32;100585.34;4898804;29;20060;-67
2021/11/23 10:15:25;;;;;;;4.22;1.75;;;;;;;8.63;47.21;100585.78;4898400;29;20491;-67
2021/11/23 10:18:07;;;;;;;3.28;1.70;;;;;;;8.72;47.11;100580.88;4898768;29;20406;-67
2021/11/23 10:20:39;;;;;;;4.13;1.98;;;;;;;8.67;46.87;100577.38;4898120;29;20052;-67
2021/11/23 10:23:18;;;;;;;3.47;1.88;;;;;;;8.39;46.15;100580.16;4898274;29;20044;-67
2021/11/23 10:25:51;;;;;;;5.57;2.03;;;;;;;8.42;46.69;100582.78;4898690;29;20522;-67
2021/11/23 10:28:22;;;;;;;3.90;1.73;;;;;;;8.21;46.36;100577.13;4898304;29;20062;-67
2021/11/23 10:30:53;;;;;;;3.08;1.85;;;;;;;8.17;46.51;100577.91;4898262;29;20057;-67
2021/11/23 10:33:29;;;;;;;4.80;2.08;;;;;;;8.36;46.70;100574.97;4898348;29;20056;-68
2021/11/23 10:35:59;;;;;;;3.80;2.08;;;;;;;8.55;46.99;100566.94;4898411;29;20048;-67
2021/11/23 10:38:29;;;;;;;4.97;2.63;;;;;;;8.37;46.33;100576.72;4898069;29;20053;-67
2021/11/23 10:41:05;;;;;;;6.43;2.00;;;;;;;8.37;46.47;100579.25;4898335;29;20087;-67
2021/11/23 10:43:38;;;;;;;6.15;2.03;;;;;;;8.25;46.45;100577.28;4898303;29;20065;-66
2021/11/23 10:46:17;;;;;;;3.90;1.90;;;;;;;8.54;46.85;100565.22;4898408;29;20060;-68
2021/11/23 10:48:52;;;;;;;;;;;;;;;8.57;46.25;100570.38;4898442;29;20057;-67
2021/11/23 10:51:23;;;;;;;4.50;1.98;;;;;;;8.95;45.91;100573.72;4898479;29;19923;-67
2021/11/23 10:54:11;;;;;;;5.72;2.10;;;;;;;8.76;45.98;100567.38;4898420;29;20052;-67
2021/11/23 10:56:56;;;;;;;3.80;2.00;;;;;;;8.59;45.80;100573.81;4897915;29;20139;-67
2021/11/23 10:59:26;;;;;;;5.10;2.33;;;;;;;8.49;46.03;100580.41;4897781;29;20116;-67
2021/11/23 11:01:57;;;;;;;3.22;1.95;;;;;;;8.53;45.85;100573.69;4898243;29;20171;-67
2021/11/23 11:04:35;;;;;;;6.93;2.35;;;;;;;8.61;46.58;100572.16;4897944;29;20060;-67
2021/11/23 11:07:09;;;;;;;3.55;2.08;;;;;;;9.13;46.52;100569.84;4898356;29;20053;-67
2021/11/23 11:09:40;;;;;;;3.80;1.75;;;;;;;9.35;46.02;100566.88;4898152;29;20059;-68
2021/11/23 11:12:11;;;;;;;4.00;2.00;;;;;;;9.52;45.60;100558.66;4898323;29;20080;-67
2021/11/23 11:14:44;;;;;;;4.30;1.85;;;;;;;9.45;44.79;100556.00;4901576;29;20049;-66
2021/11/23 11:17:19;;;;;;;3.97;2.00;;;;;;;9.56;44.95;100556.19;4901981;29;20075;-67
2021/11/23 11:19:50;;;;;;;4.50;2.13;;;;;;;9.09;44.68;100560.44;4901567;29;20139;-67
2021/11/23 11:22:21;;;;;;;3.90;2.28;;;;;;;8.88;44.62;100562.53;4901633;29;20067;-67
2021/11/23 11:25:11;;;;;;;3.40;1.73;;;;;;;9.08;44.72;100561.25;4901496;29;20049;-67
2021/11/23 11:27:46;;;;;;;5.07;2.22;;;;;;;9.19;44.66;100564.84;4901376;29;20049;-66
2021/11/23 11:30:31;;;;;;;3.05;1.60;;;;;;;8.98;44.42;100569.53;4901803;29;20071;-67
2021/11/23 11:33:13;;;;;;;3.20;1.83;;;;;;;8.89;44.90;100559.19;4901263;29;20063;-67
2021/11/23 11:35:44;;;;;;;4.47;2.25;;;;;;;8.94;44.50;100552.50;4901307;29;20085;-67
2021/11/23 11:38:38;;;;;;;3.78;2.00;;;;;;;8.84;44.97;100550.59;4901106;29;20075;-66
2021/11/23 11:41:24;;;;;;;4.38;2.10;;;;;;;9.02;45.42;100553.47;4900920;29;20057;-66
2021/11/23 11:44:08;;;;;;;3.78;2.08;;;;;;;9.29;44.86;100556.56;4900511;29;20495;-68
2021/11/23 11:46:37;;;;;;;4.82;2.03;;;;;;;9.26;44.57;100550.56;4901008;29;20056;-67
2021/11/23 11:49:09;;;;;;;4.18;2.30;;;;;;;9.64;44.32;100554.66;4901044;29;20105;-67
2021/11/23 11:51:42;;;;;;;3.45;2.08;;;;;;;9.56;44.76;100550.25;4901016;29;20049;-67
2021/11/23 11:54:19;;;;;;;4.70;2.30;;;;;;;9.63;44.01;100557.16;4900692;29;20060;-67
2021/11/23 11:56:53;;;;;;;5.53;2.30;;;;;;;9.56;44.65;100552.78;4900737;29;20049;-68
2021/11/23 11:59:32;;;;;;;4.03;2.03;;;;;;;9.53;43.88;100555.28;4900559;29;20059;-67